Time;durP1;ratioP1;P1;durP2;ratioP2;P2;SDS_P1;SDS_P2;PMS_P1;PMS_P2;Temp;Humidity;BMP_temperature;BMP_pressure;BME280_temperature;BME280_humidity;BME280_pressure;Samples;Min_cycle;Max_cycle;Signal;HPM_P1;HPM_P2
2023/10/22 00:00:33;;;;;;;0.70;0.40;;;15.20;99.90;;;;;;5037274;28;20036;-89
2023/10/22 00:03:02;;;;;;;0.63;0.40;;;15.10;99.90;;;;;;5037218;28;20025;-88
2023/10/22 00:05:48;;;;;;;1.42;0.50;;;15.10;99.90;;;;;;5039016;28;20106;-90
2023/10/22 00:08:13;;;;;;;1.05;0.40;;;15.10;99.90;;;;;;5019521;28;20481;-88
2023/10/22 00:10:44;;;;;;;1.02;0.40;;;15.10;99.90;;;;;;5017616;28;20033;-90
2023/10/22 00:13:10;;;;;;;0.80;0.52;;;15.10;99.90;;;;;;5017595;28;20033;-89
2023/10/22 00:15:41;;;;;;;1.00;0.30;;;15.10;99.90;;;;;;5036991;28;20025;-89
2023/10/22 00:18:07;;;;;;;;;;;15.10;99.90;;;;;;5038617;28;20037;-88
2023/10/22 00:20:33;;;;;;;0.77;0.45;;;15.10;99.90;;;;;;5022281;28;19913;-89
2023/10/22 00:22:58;;;;;;;1.02;0.30;;;15.10;99.90;;;;;;5017489;28;20092;-89
2023/10/22 00:25:24;;;;;;;0.90;0.45;;;15.10;99.90;;;;;;5033519;28;20024;-88
2023/10/22 00:27:55;;;;;;;1.30;0.40;;;15.10;99.90;;;;;;5016692;28;20026;-88
2023/10/22 00:30:21;;;;;;;2.05;0.77;;;15.10;99.90;;;;;;5025381;28;20108;-89
2023/10/22 00:32:54;;;;;;;1.63;0.55;;;15.10;99.90;;;;;;5036291;28;20112;-89
2023/10/22 00:35:23;;;;;;;1.63;0.50;;;15.10;99.90;;;;;;5048173;28;20503;-89
2023/10/22 00:37:51;;;;;;;1.23;0.40;;;15.10;99.90;;;;;;5049705;28;20025;-88
2023/10/22 00:40:21;;;;;;;1.83;0.40;;;15.10;99.90;;;;;;5054695;28;20099;-89
2023/10/22 00:42:47;;;;;;;0.63;0.30;;;15.10;99.90;;;;;;5036491;28;20127;-89
2023/10/22 00:45:15;;;;;;;1.08;0.40;;;15.00;99.90;;;;;;5036863;28;20044;-88
2023/10/22 00:47:41;;;;;;;0.88;0.47;;;15.00;99.90;;;;;;5020170;28;20020;-88
2023/10/22 00:50:10;;;;;;;0.93;0.52;;;15.10;99.90;;;;;;5041232;28;20107;-92
2023/10/22 00:52:38;;;;;;;1.08;0.47;;;15.10;99.90;;;;;;5036599;28;20032;-88
2023/10/22 00:55:11;;;;;;;2.67;0.70;;;15.10;99.90;;;;;;5036600;28;20017;-88
2023/10/22 00:57:40;;;;;;;0.47;0.30;;;15.10;99.90;;;;;;5021412;28;20032;-90
2023/10/22 01:00:07;;;;;;;2.03;0.60;;;15.00;99.90;;;;;;5036491;28;20140;-89
2023/10/22 01:02:35;;;;;;;3.30;0.75;;;15.00;99.90;;;;;;5056770;28;20051;-89
2023/10/22 01:05:10;;;;;;;2.65;0.88;;;15.00;99.90;;;;;;5040890;28;20389;-90
2023/10/22 01:07:36;;;;;;;1.05;0.55;;;15.00;99.90;;;;;;5054922;28;20025;-89
2023/10/22 01:10:03;;;;;;;0.73;0.50;;;15.00;99.90;;;;;;5064235;28;20021;-89
2023/10/22 01:12:35;;;;;;;0.90;0.32;;;15.00;99.90;;;;;;5039433;28;20077;-89
2023/10/22 01:15:04;;;;;;;1.38;0.50;;;15.00;99.90;;;;;;5048459;28;20006;-88
2023/10/22 01:17:30;;;;;;;1.83;0.60;;;15.00;99.90;;;;;;5063208;28;20025;-88
2023/10/22 01:19:58;;;;;;;1.85;0.50;;;15.00;99.90;;;;;;5042244;28;20035;-87
2023/10/22 01:22:23;;;;;;;0.98;0.40;;;15.00;99.90;;;;;;5057749;28;20073;-89
2023/10/22 01:24:49;;;;;;;1.10;0.55;;;14.90;99.90;;;;;;5040182;28;20029;-88
2023/10/22 01:27:15;;;;;;;1.08;0.40;;;14.90;99.90;;;;;;5028355;28;20093;-90
2023/10/22 01:29:43;;;;;;;0.70;0.55;;;15.00;99.90;;;;;;5039934;28;20029;-87
2023/10/22 01:32:09;;;;;;;1.30;0.60;;;15.00;99.90;;;;;;5039843;28;20025;-88
2023/10/22 01:34:34;;;;;;;1.00;0.45;;;14.90;99.90;;;;;;5049016;28;20025;-90
2023/10/22 01:37:19;;;;;;;1.63;0.50;;;14.90;99.90;;;;;;5059710;28;20016;-89
2023/10/22 01:39:47;;;;;;;1.38;0.60;;;14.90;99.90;;;;;;5065737;28;20071;-89
2023/10/22 01:42:12;;;;;;;1.42;0.50;;;14.90;99.90;;;;;;5023657;28;20029;-88
2023/10/22 01:44:41;;;;;;;2.88;0.60;;;15.00;99.90;;;;;;5039863;28;20029;-88
2023/10/22 01:47:15;;;;;;;2.15;0.70;;;14.90;99.90;;;;;;5040499;28;20057;-88
2023/10/22 01:49:42;;;;;;;1.83;0.60;;;14.90;99.90;;;;;;5039989;28;20392;-88
2023/10/22 01:52:08;;;;;;;2.03;0.60;;;14.90;99.90;;;;;;5039621;28;20022;-89
2023/10/22 01:54:34;;;;;;;1.27;0.60;;;14.90;99.90;;;;;;5036418;28;20080;-88
2023/10/22 01:57:00;;;;;;;1.55;0.52;;;14.90;99.90;;;;;;5028938;28;20025;-88
2023/10/22 01:59:26;;;;;;;1.60;0.68;;;14.90;99.90;;;;;;5039782;28;20037;-90
2023/10/22 02:01:54;;;;;;;1.77;0.57;;;14.90;99.90;;;;;;5039365;28;20021;-89
2023/10/22 02:04:25;;;;;;;1.15;0.60;;;14.90;99.90;;;;;;5039017;28;20049;-89
2023/10/22 02:06:58;;;;;;;2.03;0.88;;;14.90;99.90;;;;;;5022726;28;20029;-88
2023/10/22 02:09:24;;;;;;;1.67;0.70;;;14.90;99.90;;;;;;5039503;28;20029;-89
2023/10/22 02:11:52;;;;;;;1.55;0.50;;;14.90;99.90;;;;;;5056718;28;20175;-89
2023/10/22 02:14:21;;;;;;;1.48;0.65;;;14.90;99.90;;;;;;5048292;28;20380;-88
2023/10/22 02:16:49;;;;;;;2.00;0.63;;;14.90;99.90;;;;;;5058672;28;20032;-88
2023/10/22 02:19:20;;;;;;;2.45;0.82;;;14.90;99.90;;;;;;5042777;28;20019;-88
2023/10/22 02:21:49;;;;;;;3.67;1.08;;;14.80;99.90;;;;;;5039798;28;20033;-88
2023/10/22 02:24:17;;;;;;;1.58;0.60;;;14.80;99.90;;;;;;5022136;28;20033;-87
2023/10/22 02:26:42;;;;;;;1.38;0.55;;;14.70;99.90;;;;;;5025978;28;20029;-87
2023/10/22 02:29:11;;;;;;;1.05;0.60;;;14.80;99.90;;;;;;5056981;28;20475;-88
2023/10/22 02:31:42;;;;;;;2.60;1.00;;;14.70;99.90;;;;;;5054666;28;20029;-88
2023/10/22 02:34:13;;;;;;;1.30;0.70;;;14.80;99.90;;;;;;5038851;28;20027;-87
2023/10/22 02:36:49;;;;;;;;;;;;;;;;;;;;;
2023/10/22 02:39:15;;;;;;;2.47;0.80;;;14.60;99.90;;;;;;5070590;28;20384;-91
2023/10/22 02:41:43;;;;;;;2.70;0.82;;;14.60;99.90;;;;;;5059246;28;20111;-89
2023/10/22 02:44:11;;;;;;;2.35;0.88;;;14.60;99.90;;;;;;5019405;28;20072;-88
2023/10/22 02:46:47;;;;;;;;;;;;;;;;;;;;;
2023/10/22 02:49:15;;;;;;;2.05;1.00;;;14.50;99.90;;;;;;5039494;28;20037;-89
2023/10/22 02:51:43;;;;;;;2.28;0.73;;;14.40;99.90;;;;;;5070206;28;20032;-88
2023/10/22 02:54:09;;;;;;;0.93;0.60;;;14.40;99.90;;;;;;5066256;28;20076;-89
2023/10/22 02:56:35;;;;;;;2.45;0.90;;;14.40;99.90;;;;;;5051924;28;20043;-88
2023/10/22 02:59:00;;;;;;;1.30;0.70;;;14.40;99.90;;;;;;5062715;28;20096;-89
2023/10/22 03:01:36;;;;;;;2.72;1.00;;;14.40;99.90;;;;;;5022047;28;20028;-88
2023/10/22 03:04:02;;;;;;;2.67;0.75;;;14.40;99.90;;;;;;5023093;28;20071;-88
2023/10/22 03:06:30;;;;;;;1.83;0.88;;;14.30;99.90;;;;;;5021978;28;20025;-88
2023/10/22 03:08:58;;;;;;;1.50;0.90;;;14.30;99.90;;;;;;5038478;28;20013;-89
2023/10/22 03:11:36;;;;;;;2.65;1.00;;;14.30;99.90;;;;;;5038370;28;20037;-88
2023/10/22 03:14:05;;;;;;;2.80;0.90;;;14.30;99.90;;;;;;5022651;28;20021;-88
2023/10/22 03:16:33;;;;;;;4.80;1.23;;;14.30;99.90;;;;;;5038378;28;20013;-88
2023/10/22 03:19:01;;;;;;;1.48;0.93;;;14.40;99.90;;;;;;5038421;28;20512;-88
2023/10/22 03:21:28;;;;;;;1.92;0.80;;;14.30;99.90;;;;;;5021822;28;20361;-89
2023/10/22 03:24:01;;;;;;;2.60;0.93;;;14.30;99.90;;;;;;5037666;28;20056;-89
2023/10/22 03:26:29;;;;;;;2.63;0.93;;;14.30;99.90;;;;;;5037844;28;20107;-89
2023/10/22 03:28:58;;;;;;;1.65;0.90;;;14.30;99.90;;;;;;5037767;28;20100;-88
2023/10/22 03:31:28;;;;;;;2.38;0.85;;;14.30;99.90;;;;;;5055597;28;20021;-88
2023/10/22 03:33:54;;;;;;;3.00;1.02;;;14.30;99.90;;;;;;5037650;28;20017;-89
2023/10/22 03:36:22;;;;;;;1.55;0.82;;;14.30;99.90;;;;;;5037673;28;20027;-90
2023/10/22 03:38:54;;;;;;;1.98;0.80;;;14.30;99.90;;;;;;5037774;28;20009;-88
2023/10/22 03:41:22;;;;;;;4.43;1.27;;;14.30;99.90;;;;;;5037682;28;20540;-89
2023/10/22 03:43:49;;;;;;;3.67;1.20;;;14.30;99.90;;;;;;5037862;28;20055;-88
2023/10/22 03:46:44;;;;;;;3.92;1.10;;;14.30;99.90;;;;;;5021248;28;20021;-89
2023/10/22 03:49:10;;;;;;;2.97;1.20;;;14.30;99.90;;;;;;5054721;28;20025;-89
2023/10/22 03:51:41;;;;;;;2.70;1.10;;;14.30;99.90;;;;;;5054218;28;20104;-89
2023/10/22 03:54:07;;;;;;;;;;;14.30;99.90;;;;;;5037557;28;20476;-89
2023/10/22 03:56:36;;;;;;;2.58;0.90;;;14.30;99.90;;;;;;5037502;28;19995;-87
2023/10/22 03:59:04;;;;;;;3.25;1.17;;;14.20;99.90;;;;;;5037186;28;20533;-90
2023/10/22 04:01:30;;;;;;;3.45;1.08;;;14.20;99.90;;;;;;5038083;28;20033;-89
2023/10/22 04:04:26;;;;;;;1.73;1.10;;;14.20;99.90;;;;;;5037163;28;20107;-89
2023/10/22 04:06:58;;;;;;;3.42;1.23;;;14.20;99.90;;;;;;5038816;28;20017;-88
2023/10/22 04:09:24;;;;;;;2.13;1.15;;;14.20;99.90;;;;;;5055056;28;20040;-89
2023/10/22 04:11:54;;;;;;;3.60;0.98;;;14.20;99.90;;;;;;5037137;28;20013;-87
2023/10/22 04:14:22;;;;;;;2.70;1.20;;;14.20;99.90;;;;;;5037776;28;20025;-89
2023/10/22 04:16:51;;;;;;;2.13;0.95;;;14.20;99.90;;;;;;5037273;28;20456;-90
2023/10/22 04:19:21;;;;;;;2.15;1.00;;;14.20;99.90;;;;;;5054975;28;20021;-88
2023/10/22 04:21:49;;;;;;;1.95;1.20;;;14.20;99.90;;;;;;5021880;28;20039;-89
2023/10/22 04:24:15;;;;;;;2.03;1.35;;;14.20;99.90;;;;;;5021644;28;20021;-89
2023/10/22 04:26:42;;;;;;;1.73;1.08;;;14.20;99.90;;;;;;5042176;28;20027;-88
2023/10/22 04:29:08;;;;;;;4.32;1.70;;;14.10;99.90;;;;;;5043554;28;20033;-88
2023/10/22 04:31:37;;;;;;;1.88;1.10;;;14.10;99.90;;;;;;5060793;28;20032;-88
2023/10/22 04:34:04;;;;;;;1.50;1.30;;;14.20;99.90;;;;;;5077223;28;20025;-89
2023/10/22 04:36:33;;;;;;;1.40;1.10;;;14.10;99.90;;;;;;5043296;28;20055;-87
2023/10/22 04:39:01;;;;;;;1.58;1.05;;;14.10;99.90;;;;;;5060536;28;20009;-89
2023/10/22 04:41:30;;;;;;;1.35;0.98;;;14.10;99.90;;;;;;5041851;28;20036;-89
2023/10/22 04:43:56;;;;;;;1.73;1.23;;;14.10;99.90;;;;;;5037552;28;20124;-88
2023/10/22 04:46:23;;;;;;;0.80;0.80;;;14.10;99.90;;;;;;5004569;28;20380;-88
2023/10/22 04:48:56;;;;;;;1.83;1.40;;;14.10;99.90;;;;;;5036821;28;20021;-88
2023/10/22 04:51:25;;;;;;;1.73;1.40;;;14.10;99.90;;;;;;5035987;28;20017;-90
2023/10/22 04:53:53;;;;;;;2.83;1.80;;;14.20;99.90;;;;;;5054804;28;20031;-90
2023/10/22 04:56:21;;;;;;;3.03;1.63;;;14.20;99.90;;;;;;5058777;28;20028;-89
2023/10/22 04:58:49;;;;;;;2.10;1.75;;;14.10;99.90;;;;;;5020290;28;20206;-88
2023/10/22 05:01:15;;;;;;;2.67;1.67;;;14.10;99.90;;;;;;5035863;28;20029;-90
2023/10/22 05:03:41;;;;;;;2.03;1.83;;;14.20;99.90;;;;;;5024498;28;20096;-90
2023/10/22 05:06:07;;;;;;;3.38;2.22;;;14.20;99.90;;;;;;5034179;28;20022;-90
2023/10/22 05:08:34;;;;;;;4.28;2.50;;;14.20;99.90;;;;;;5021690;28;20025;-90
2023/10/22 05:11:05;;;;;;;3.47;2.67;;;14.10;99.90;;;;;;5056523;28;20021;-89
2023/10/22 05:13:36;;;;;;;3.95;2.05;;;14.20;99.90;;;;;;5030890;28;20029;-88
2023/10/22 05:16:07;;;;;;;4.32;2.65;;;14.20;99.90;;;;;;5054227;28;20025;-89
2023/10/22 05:18:36;;;;;;;4.32;2.88;;;14.10;99.90;;;;;;5054108;28;20063;-88
2023/10/22 05:21:04;;;;;;;3.53;2.78;;;14.10;99.90;;;;;;5054074;28;20029;-88
2023/10/22 05:23:31;;;;;;;5.50;3.22;;;14.10;99.90;;;;;;5036125;28;20040;-89
2023/10/22 05:26:08;;;;;;;3.75;3.10;;;14.10;99.90;;;;;;5019956;28;20025;-89
2023/10/22 05:28:34;;;;;;;3.90;2.83;;;14.10;99.90;;;;;;5044216;28;20025;-88
2023/10/22 05:31:02;;;;;;;5.38;3.63;;;14.00;99.90;;;;;;5055813;28;20032;-89
2023/10/22 05:33:27;;;;;;;3.25;2.70;;;14.00;99.90;;;;;;5037631;28;20040;-88
2023/10/22 05:35:53;;;;;;;5.60;2.97;;;14.00;99.90;;;;;;5036166;28;20029;-89
2023/10/22 05:38:19;;;;;;;4.35;2.75;;;13.90;99.90;;;;;;5035907;28;20025;-89
2023/10/22 05:40:45;;;;;;;4.50;2.75;;;13.90;99.90;;;;;;5035769;28;20056;-88
2023/10/22 05:43:11;;;;;;;4.72;3.10;;;14.00;99.90;;;;;;5053309;28;20347;-88
2023/10/22 05:45:46;;;;;;;3.75;3.17;;;13.90;99.90;;;;;;5041220;28;20476;-88
2023/10/22 05:48:22;;;;;;;4.15;2.70;;;13.90;99.90;;;;;;5046070;28;20041;-90
2023/10/22 05:50:53;;;;;;;3.38;2.65;;;13.90;99.90;;;;;;5034219;28;20026;-89
2023/10/22 05:53:24;;;;;;;4.40;3.10;;;13.80;99.90;;;;;;5043302;28;20025;-89
2023/10/22 05:56:00;;;;;;;6.80;3.53;;;13.80;99.90;;;;;;5027420;28;20051;-88
2023/10/22 05:58:28;;;;;;;5.40;3.63;;;13.80;99.90;;;;;;5039798;28;20029;-90
2023/10/22 06:00:58;;;;;;;5.82;3.40;;;13.80;99.90;;;;;;5040127;28;20024;-89
2023/10/22 06:03:26;;;;;;;6.13;3.38;;;13.80;99.90;;;;;;5057187;28;20033;-89
2023/10/22 06:05:57;;;;;;;5.32;3.25;;;13.90;99.90;;;;;;5028443;28;20049;-89
2023/10/22 06:08:25;;;;;;;4.93;3.50;;;13.80;99.90;;;;;;5057957;28;20104;-88
2023/10/22 06:10:58;;;;;;;5.43;3.65;;;13.90;99.90;;;;;;5052366;28;20035;-89
2023/10/22 06:13:28;;;;;;;4.85;3.58;;;13.80;99.90;;;;;;5062973;28;20028;-88
2023/10/22 06:15:59;;;;;;;5.03;3.50;;;13.90;99.90;;;;;;5046783;28;20009;-89
2023/10/22 06:18:25;;;;;;;5.22;3.50;;;13.90;99.90;;;;;;5062751;28;20020;-88
2023/10/22 06:20:56;;;;;;;4.50;3.10;;;13.90;99.90;;;;;;5056190;28;20104;-89
2023/10/22 06:23:25;;;;;;;4.68;3.60;;;14.00;99.90;;;;;;5048696;28;20024;-89
2023/10/22 06:25:51;;;;;;;5.78;3.67;;;14.00;99.90;;;;;;5059927;28;20097;-89
2023/10/22 06:28:19;;;;;;;4.03;3.63;;;14.00;99.90;;;;;;5047292;28;20052;-89
2023/10/22 06:30:45;;;;;;;3.78;3.33;;;14.00;99.90;;;;;;5039113;28;20036;-88
2023/10/22 06:33:10;;;;;;;4.57;3.85;;;14.00;99.90;;;;;;5040244;28;20107;-89
2023/10/22 06:35:36;;;;;;;5.75;4.28;;;14.00;99.90;;;;;;5050976;28;20021;-90
2023/10/22 06:38:04;;;;;;;4.82;3.80;;;14.00;99.90;;;;;;5043014;28;20025;-90
2023/10/22 06:40:30;;;;;;;6.82;3.58;;;14.00;99.90;;;;;;5038483;28;20033;-89
2023/10/22 06:42:56;;;;;;;4.43;3.53;;;14.00;99.90;;;;;;5039183;28;20029;-89
2023/10/22 06:45:21;;;;;;;5.55;3.47;;;14.00;99.90;;;;;;5056317;28;20033;-89
2023/10/22 06:47:47;;;;;;;3.92;3.42;;;14.00;99.90;;;;;;5038712;28;20036;-89
2023/10/22 06:50:16;;;;;;;6.28;3.30;;;14.00;99.90;;;;;;5038823;28;20036;-89
2023/10/22 06:52:42;;;;;;;6.05;3.67;;;14.00;99.90;;;;;;5052359;28;20112;-89
2023/10/22 06:55:11;;;;;;;4.93;3.47;;;14.00;99.90;;;;;;5046679;28;20077;-89
2023/10/22 06:57:38;;;;;;;4.50;3.47;;;14.00;99.90;;;;;;5038285;28;20025;-90
2023/10/22 07:00:07;;;;;;;4.90;3.47;;;14.00;99.90;;;;;;5037188;28;20032;-89
2023/10/22 07:02:34;;;;;;;4.55;2.97;;;14.00;99.90;;;;;;5038493;28;20057;-90
2023/10/22 07:05:02;;;;;;;4.72;3.33;;;14.00;99.90;;;;;;5034580;28;20084;-89
2023/10/22 07:07:31;;;;;;;5.38;3.40;;;13.90;99.90;;;;;;5050857;28;20037;-90
2023/10/22 07:10:01;;;;;;;5.45;3.00;;;14.00;99.90;;;;;;5055169;28;20457;-89
2023/10/22 07:12:30;;;;;;;4.78;3.20;;;14.00;99.90;;;;;;5035067;28;20032;-88
2023/10/22 07:14:56;;;;;;;5.15;3.33;;;13.90;99.90;;;;;;5034869;28;20072;-88
2023/10/22 07:17:27;;;;;;;5.97;3.10;;;13.90;99.90;;;;;;5032644;28;20033;-89
2023/10/22 07:19:53;;;;;;;5.57;2.97;;;13.90;99.90;;;;;;5048373;28;20477;-88
2023/10/22 07:22:19;;;;;;;4.68;2.70;;;13.90;99.90;;;;;;5034951;28;20125;-89
2023/10/22 07:24:47;;;;;;;3.88;2.47;;;13.90;99.90;;;;;;5017882;28;20115;-89
2023/10/22 07:27:17;;;;;;;3.83;2.35;;;13.90;99.90;;;;;;5035009;28;20104;-89
2023/10/22 07:29:44;;;;;;;2.90;2.20;;;14.00;99.90;;;;;;5034887;28;20025;-90
2023/10/22 07:32:16;;;;;;;4.30;2.40;;;13.90;99.90;;;;;;5038904;28;20052;-89
2023/10/22 07:34:41;;;;;;;2.78;2.05;;;14.00;99.90;;;;;;5037496;28;20387;-88
2023/10/22 07:37:07;;;;;;;2.67;2.00;;;13.90;99.90;;;;;;5047343;28;20029;-89
2023/10/22 07:39:33;;;;;;;4.03;2.50;;;14.00;99.90;;;;;;5015560;28;20421;-90
2023/10/22 07:41:59;;;;;;;4.15;2.20;;;13.90;99.90;;;;;;5014854;28;20099;-89
2023/10/22 07:44:30;;;;;;;3.30;2.20;;;13.90;99.90;;;;;;5019205;28;20037;-90
2023/10/22 07:46:56;;;;;;;2.85;2.00;;;13.90;99.90;;;;;;5035468;28;20061;-89
2023/10/22 07:49:22;;;;;;;3.17;1.90;;;13.90;99.90;;;;;;5035201;28;20026;-89
2023/10/22 07:54:49;;;;;;;4.55;1.77;;;13.90;99.90;;;;;;5060852;28;20076;-89
2023/10/22 07:57:32;;;;;;;5.22;2.20;;;13.90;99.90;;;;;;5076639;28;20021;-89
2023/10/22 08:00:05;;;;;;;3.20;1.77;;;13.90;99.90;;;;;;5060136;28;20057;-90
2023/10/22 08:02:37;;;;;;;3.67;1.60;;;13.90;99.90;;;;;;5038041;28;20076;-90
2023/10/22 08:05:05;;;;;;;3.63;2.00;;;13.90;99.90;;;;;;5030529;28;20045;-89
2023/10/22 08:07:33;;;;;;;3.88;1.67;;;14.00;99.90;;;;;;4995142;28;20027;-89
2023/10/22 08:10:02;;;;;;;3.50;1.83;;;13.90;99.90;;;;;;4994665;28;20029;-89
2023/10/22 08:12:30;;;;;;;2.33;1.63;;;13.90;99.90;;;;;;5024385;28;20037;-89
2023/10/22 08:14:56;;;;;;;2.30;1.75;;;13.90;99.90;;;;;;5006330;28;20390;-90
2023/10/22 08:17:24;;;;;;;2.42;1.60;;;13.90;99.90;;;;;;5014502;28;20026;-90
2023/10/22 08:19:50;;;;;;;4.40;2.03;;;14.00;99.90;;;;;;5001442;28;20034;-90
2023/10/22 08:22:18;;;;;;;4.15;1.50;;;14.00;99.90;;;;;;4993952;28;20037;-89
2023/10/22 08:24:52;;;;;;;5.65;1.80;;;14.00;99.90;;;;;;5011675;28;20022;-89
2023/10/22 08:27:18;;;;;;;1.90;1.42;;;14.00;99.90;;;;;;4998163;28;20550;-92
2023/10/22 08:29:44;;;;;;;3.58;1.52;;;14.00;99.90;;;;;;5013606;28;20109;-89
2023/10/22 08:32:11;;;;;;;2.95;1.50;;;14.00;99.90;;;;;;5030240;28;20032;-92
2023/10/22 08:34:38;;;;;;;2.80;1.23;;;14.00;99.90;;;;;;5016708;28;20459;-90
2023/10/22 08:37:04;;;;;;;1.90;1.40;;;14.10;99.90;;;;;;5034630;28;20025;-91
2023/10/22 08:39:32;;;;;;;2.42;1.02;;;14.10;99.90;;;;;;5033506;28;20072;-91
2023/10/22 08:42:12;;;;;;;;;;;;;;;;;;;;;
2023/10/22 08:44:54;;;;;;;1.70;1.02;;;14.20;99.90;;;;;;4995011;28;20029;-92
2023/10/22 08:47:25;;;;;;;1.60;1.17;;;14.20;99.90;;;;;;5030303;28;20026;-91
2023/10/22 08:49:53;;;;;;;1.83;1.10;;;14.30;99.90;;;;;;5032172;28;20052;-92
2023/10/22 08:52:19;;;;;;;1.80;1.13;;;14.30;99.90;;;;;;5033193;28;20377;-92
2023/10/22 08:54:56;;;;;;;1.40;1.10;;;14.30;99.90;;;;;;5033135;28;20153;-93
2023/10/22 08:57:24;;;;;;;1.98;1.10;;;14.30;99.90;;;;;;5033585;28;20063;-91
2023/10/22 08:59:51;;;;;;;1.30;1.20;;;14.30;99.90;;;;;;5020044;28;20030;-91
2023/10/22 09:02:27;;;;;;;1.48;0.93;;;14.40;99.90;;;;;;5015250;28;20034;-93
2023/10/22 09:05:11;;;;;;;3.17;1.30;;;14.40;99.90;;;;;;5010254;28;20052;-93
2023/10/22 09:07:54;;;;;;;2.85;1.35;;;14.50;99.90;;;;;;5033142;28;20029;-92
2023/10/22 09:10:28;;;;;;;3.45;1.40;;;14.50;99.90;;;;;;5033328;28;20488;-90
2023/10/22 09:12:54;;;;;;;4.07;1.50;;;14.60;99.90;;;;;;5037417;28;20033;-91
2023/10/22 09:15:20;;;;;;;2.05;1.00;;;14.60;99.90;;;;;;5036386;28;20025;-90
2023/10/22 09:17:46;;;;;;;2.53;1.30;;;14.70;99.90;;;;;;5053011;28;20036;-89
2023/10/22 09:20:21;;;;;;;2.42;1.40;;;14.70;99.90;;;;;;5018922;28;20095;-91
2023/10/22 09:22:48;;;;;;;3.15;1.10;;;14.80;99.90;;;;;;5034319;28;20034;-91
2023/10/22 09:25:16;;;;;;;1.92;1.10;;;14.80;99.90;;;;;;5025914;28;20021;-91
2023/10/22 09:27:42;;;;;;;2.70;1.10;;;14.80;99.90;;;;;;5044765;28;20029;-90
2023/10/22 09:30:08;;;;;;;2.75;1.17;;;14.90;99.90;;;;;;5046189;28;20044;-90
2023/10/22 09:32:34;;;;;;;3.35;1.20;;;14.90;99.90;;;;;;5054276;28;20025;-89
2023/10/22 09:35:25;;;;;;;5.15;1.40;;;14.90;99.90;;;;;;5046668;28;20097;-90
2023/10/22 09:37:53;;;;;;;1.65;1.00;;;15.00;99.90;;;;;;5060053;28;20045;-89
2023/10/22 09:40:22;;;;;;;3.20;1.13;;;15.00;99.90;;;;;;5063793;28;20078;-91
2023/10/22 09:42:55;;;;;;;1.92;1.05;;;15.00;99.90;;;;;;5037492;28;20373;-94
2023/10/22 09:45:23;;;;;;;4.35;1.35;;;15.10;99.90;;;;;;5043699;28;20464;-91
2023/10/22 09:47:56;;;;;;;3.67;1.15;;;15.10;99.90;;;;;;5062696;28;20029;-91
2023/10/22 09:50:22;;;;;;;1.83;0.75;;;15.20;99.90;;;;;;5040047;28;20040;-91
2023/10/22 09:52:54;;;;;;;2.60;0.93;;;15.20;99.90;;;;;;5049567;28;20033;-90
2023/10/22 09:55:23;;;;;;;2.35;1.08;;;15.30;99.90;;;;;;5049333;28;20112;-90
2023/10/22 09:57:49;;;;;;;2.92;1.13;;;15.30;99.90;;;;;;5049347;28;20021;-89
2023/10/22 10:00:17;;;;;;;2.53;1.10;;;15.40;99.90;;;;;;5035001;28;20079;-89
2023/10/22 10:02:43;;;;;;;2.60;1.17;;;15.40;99.90;;;;;;5067312;28;20017;-91
2023/10/22 10:05:27;;;;;;;3.17;1.10;;;15.40;99.90;;;;;;5043266;28;20142;-89
2023/10/22 10:07:53;;;;;;;3.28;1.00;;;15.50;99.90;;;;;;5046559;28;20047;-90
2023/10/22 10:10:24;;;;;;;1.25;0.98;;;15.60;99.90;;;;;;5044961;28;20048;-92
2023/10/22 10:12:51;;;;;;;1.67;0.80;;;15.50;99.90;;;;;;5035265;28;20041;-91
2023/10/22 10:15:38;;;;;;;1.38;0.90;;;15.60;99.90;;;;;;5025757;28;20025;-91
2023/10/22 10:18:08;;;;;;;3.50;1.15;;;15.60;99.90;;;;;;5025971;28;20029;-90
2023/10/22 10:20:35;;;;;;;3.10;1.05;;;15.50;99.90;;;;;;5039301;28;20083;-92
2023/10/22 10:23:09;;;;;;;1.48;1.00;;;15.60;99.90;;;;;;5027611;28;20095;-91
2023/10/22 10:25:42;;;;;;;2.15;0.85;;;15.60;99.90;;;;;;5039288;28;20029;-89
2023/10/22 10:28:10;;;;;;;3.95;1.05;;;15.60;99.90;;;;;;5029368;28;20423;-92
2023/10/22 10:30:37;;;;;;;2.38;0.98;;;15.60;99.90;;;;;;5039239;28;20032;-94
2023/10/22 10:33:03;;;;;;;2.05;1.00;;;15.60;99.90;;;;;;5052987;28;20020;-93
2023/10/22 10:35:30;;;;;;;1.60;0.80;;;15.60;99.90;;;;;;5059090;28;20024;-92
2023/10/22 10:38:14;;;;;;;3.53;1.17;;;15.70;99.90;;;;;;5075141;28;20078;-90
2023/10/22 10:40:46;;;;;;;1.58;0.90;;;15.70;99.90;;;;;;5038936;28;20036;-91
2023/10/22 10:43:21;;;;;;;1.40;0.82;;;15.70;99.90;;;;;;5040826;28;20484;-93
2023/10/22 10:46:42;;;;;;;1.70;0.80;;;15.70;99.90;;;;;;5039360;28;20017;-91
2023/10/22 10:49:08;;;;;;;3.75;1.08;;;15.70;99.90;;;;;;4998708;28;20041;-94
2023/10/22 10:51:36;;;;;;;2.35;1.23;;;15.80;99.90;;;;;;5018527;28;20059;-92
2023/10/22 10:54:12;;;;;;;2.33;0.80;;;15.80;99.90;;;;;;5021322;28;20041;-95
2023/10/22 10:57:07;;;;;;;;;;;;;;;;;;;;;
2023/10/22 10:59:36;;;;;;;1.48;0.85;;;15.80;99.90;;;;;;5023146;28;20030;-93
2023/10/22 11:02:06;;;;;;;1.77;0.90;;;15.80;99.90;;;;;;5058505;28;20463;-91
2023/10/22 11:04:36;;;;;;;1.35;0.68;;;15.80;99.90;;;;;;5046125;28;20108;-92
2023/10/22 11:07:02;;;;;;;1.77;1.00;;;15.80;99.90;;;;;;5039284;28;20439;-92
2023/10/22 11:09:28;;;;;;;1.25;0.82;;;15.90;99.90;;;;;;5039419;28;20029;-94
2023/10/22 11:12:04;;;;;;;2.03;0.95;;;16.00;99.90;;;;;;5039710;28;20059;-95
2023/10/22 11:14:35;;;;;;;2.35;0.80;;;16.00;99.90;;;;;;5072409;28;20013;-92
2023/10/22 11:17:04;;;;;;;1.95;0.82;;;16.00;99.90;;;;;;5062375;28;20080;-93
2023/10/22 11:19:34;;;;;;;3.95;0.82;;;16.00;99.90;;;;;;5079389;28;20048;-92
2023/10/22 11:22:02;;;;;;;2.97;1.00;;;16.00;99.90;;;;;;5084872;28;20047;-92
2023/10/22 11:24:33;;;;;;;1.45;1.00;;;16.00;99.90;;;;;;5087969;28;20039;-92
2023/10/22 11:27:03;;;;;;;4.43;1.10;;;16.00;99.90;;;;;;5062371;28;20017;-93
2023/10/22 11:29:32;;;;;;;2.00;0.98;;;16.10;99.90;;;;;;5044729;28;20109;-94
2023/10/22 11:31:59;;;;;;;2.60;1.10;;;16.10;99.90;;;;;;5071841;28;20043;-93
2023/10/22 11:34:27;;;;;;;2.38;1.20;;;16.20;99.90;;;;;;5055756;28;20047;-91
2023/10/22 11:36:59;;;;;;;2.83;1.10;;;16.20;99.90;;;;;;5038733;28;20017;-89
2023/10/22 11:39:34;;;;;;;2.05;1.02;;;16.20;99.90;;;;;;5056786;28;20105;-93
2023/10/22 11:42:07;;;;;;;2.70;1.40;;;16.30;99.90;;;;;;5038824;28;20025;-93
2023/10/22 11:44:36;;;;;;;3.50;1.10;;;16.30;99.90;;;;;;5022129;28;20025;-93
2023/10/22 11:47:21;;;;;;;1.92;1.20;;;16.30;99.90;;;;;;5017953;28;20053;-93
2023/10/22 11:49:47;;;;;;;2.25;1.20;;;16.30;99.90;;;;;;5041654;28;20464;-92
2023/10/22 11:52:38;;;;;;;2.00;1.10;;;16.30;99.90;;;;;;5057099;28;20491;-92
2023/10/22 11:55:09;;;;;;;1.80;1.30;;;16.30;99.90;;;;;;5075240;28;20047;-93
2023/10/22 11:57:41;;;;;;;1.90;1.30;;;16.30;99.90;;;;;;5044858;28;20029;-92
2023/10/22 12:00:11;;;;;;;3.38;2.03;;;16.30;99.90;;;;;;5020983;28;20033;-91
2023/10/22 12:02:46;;;;;;;1.57;1.20;;;16.40;99.90;;;;;;5038071;28;20071;-93
2023/10/22 12:05:13;;;;;;;1.15;1.05;;;16.40;99.90;;;;;;5039918;28;20129;-91
2023/10/22 12:07:39;;;;;;;1.63;0.95;;;16.40;99.90;;;;;;5054986;28;20048;-93
2023/10/22 12:10:06;;;;;;;1.38;1.25;;;16.40;99.90;;;;;;5048266;28;20028;-92
2023/10/22 12:12:32;;;;;;;2.72;1.67;;;16.40;99.90;;;;;;5034544;28;20061;-93
2023/10/22 12:14:59;;;;;;;1.50;0.95;;;16.40;99.90;;;;;;5037360;28;20025;-90
2023/10/22 12:17:27;;;;;;;1.75;1.30;;;16.50;99.90;;;;;;5037527;28;20082;-92
2023/10/22 12:19:53;;;;;;;1.92;1.35;;;16.50;99.90;;;;;;5015979;28;20079;-94
2023/10/22 12:22:21;;;;;;;1.40;1.20;;;16.50;99.90;;;;;;5022447;28;20025;-94
2023/10/22 12:24:58;;;;;;;;;;;;;;;;;;;;;
2023/10/22 12:27:25;;;;;;;2.28;1.10;;;16.60;99.90;;;;;;5063191;28;20024;-96
2023/10/22 12:29:55;;;;;;;2.45;1.50;;;16.50;99.90;;;;;;5034279;28;20048;-95
2023/10/22 12:32:20;;;;;;;2.10;1.52;;;16.60;99.90;;;;;;5045600;28;20031;-95
2023/10/22 12:34:49;;;;;;;2.83;1.42;;;16.50;99.90;;;;;;5042101;28;20028;-96
2023/10/22 12:37:14;;;;;;;5.25;2.00;;;16.60;99.90;;;;;;5042587;28;20025;-93
2023/10/22 12:39:42;;;;;;;2.67;1.50;;;16.50;99.90;;;;;;5009575;28;20029;-95
2023/10/22 12:42:10;;;;;;;3.38;1.70;;;16.50;99.90;;;;;;4995474;28;20551;-94
2023/10/22 12:44:36;;;;;;;3.35;1.60;;;16.50;99.90;;;;;;5032797;28;20030;-94
2023/10/22 12:47:09;;;;;;;2.13;1.60;;;16.60;99.90;;;;;;5014836;28;20631;-90
2023/10/22 12:49:38;;;;;;;1.70;1.60;;;16.50;99.90;;;;;;5030828;28;20067;-92
2023/10/22 12:52:04;;;;;;;2.63;1.80;;;16.60;99.90;;;;;;5041051;28;20104;-95
2023/10/22 12:54:29;;;;;;;1.60;1.50;;;16.50;99.90;;;;;;5062191;28;20472;-92
2023/10/22 12:57:02;;;;;;;1.92;1.60;;;16.60;99.90;;;;;;5036219;28;20016;-92
2023/10/22 12:59:29;;;;;;;2.50;1.60;;;16.60;99.90;;;;;;5025131;28;20029;-94
2023/10/22 13:01:55;;;;;;;2.65;1.40;;;16.60;99.90;;;;;;5076177;28;20044;-95
2023/10/22 13:04:29;;;;;;;3.28;1.40;;;16.60;99.90;;;;;;5068304;28;20005;-92
2023/10/22 13:06:58;;;;;;;2.20;1.40;;;16.70;99.90;;;;;;5046959;28;20025;-93